Almont, ND

12:29 PM MDT on September 21, 2014 (GMT -0600)
KNDELGIN2 | Change Station
CLOSE
Current Station
Personal Weather Station
Location: Elgin, ND
Elevation: 2354 ft
Nearby Weather Stations

Elev 2354 ft 46.40 °N, 101.84 °W | Updated 8 minutes ago

Clear
Clear
67.8 °F
Feels Like 67.8 °F
N
3.0
Wind Variable Wind from NNE
Gusts 7.0 mph

Today
High -- | Low -- °F
--% Chance of Precip.
Yesterday
High -- | Low -- °F
Precip. -- in
6:31 AM 6:45 PM
Waning Crescent, 6% visible
Pressure 30.29 in
Visibility 10.0 miles
Clouds Clear
Dew Point 39 °F
Humidity 35%
Rainfall 0.00 in
Snow Depth Not available.
UV 6 out of 12
Pollen 4.10 out of 12
Air Quality Not available.
Flu Activity Not available.
METAR KY19 211815Z AUTO 00000KT 10SM CLR 19/07 A3029 RMK AO2

More Conditions Fewer Conditions

Pressure 30.29 in
Visibility 10.0 miles
Clouds Clear
Dew Point 39 °F
Humidity 35%
Rainfall 0.00 in
Snow Depth Not available.
UV 6 out of 12
Pollen 4.10 out of 12
Air Quality Not available.
Flu Activity Not available.
METAR KY19 211815Z AUTO 00000KT 10SM CLR 19/07 A3029 RMK AO2

More Conditions Fewer Conditions

10-Day Weather Forecast

Almanac

Astronomy

Sep. 21, 2014 Rise Set
Actual Time 6:31 AM MDT 6:45 PM MDT
Civil Twilight 6:01 AM MDT 7:15 PM MDT
Nautical Twilight 5:25 AM MDT 7:51 PM MDT
Astronomical Twilight 4:49 AM MDT 8:28 PM MDT
Moon 4:00 AM MDT 5:28 PM MDT
Length of Visible Light 13h 14m
Length of Day
12h 13m
Tomorrow will be 3m 18s shorter.
Waning Crescent, 6% of the Moon is Illuminated
Today
Waning Crescent
Sep 24
New
Oct 1
First Quarter
Oct 8
Full
Oct 15
Last Quarter

Today's Extremes

State Highs State Lows

Community

WunderPhotos

Upload Photos

1,755,212 photos uploaded!

WunderBlogs® & News

Nearby

Snow Depth

Station Depth Elevation
No new snow has been reported.

Earthquake Activity

City Distance Mag. Time & Date
No recent earthquake activity has been reported nearby.
Minimum magnitude displayed is 2.5.

Coastal Water Temperatures

Place Temperature
No Stations Reporting

Nearby Weather Stations